sensor_id;sensor_type;location;lat;lon;timestamp;P1;durP1;ratioP1;P2;durP2;ratioP2
59093;SDS011;44880;52.814;18.270;2023-05-02T00:00:17;10.40;;;4.60;;
59093;SDS011;44880;52.814;18.270;2023-05-02T00:03:09;10.90;;;4.50;;
59093;SDS011;44880;52.814;18.270;2023-05-02T00:05:41;11.20;;;4.70;;
59093;SDS011;44880;52.814;18.270;2023-05-02T00:08:13;10.00;;;4.30;;
59093;SDS011;44880;52.814;18.270;2023-05-02T00:10:45;11.60;;;4.50;;
59093;SDS011;44880;52.814;18.270;2023-05-02T00:13:16;11.60;;;4.80;;
59093;SDS011;44880;52.814;18.270;2023-05-02T00:15:48;10.70;;;4.90;;
59093;SDS011;44880;52.814;18.270;2023-05-02T00:18:20;10.60;;;4.00;;
59093;SDS011;44880;52.814;18.270;2023-05-02T00:20:54;12.60;;;4.90;;
59093;SDS011;44880;52.814;18.270;2023-05-02T00:23:25;10.80;;;4.40;;
59093;SDS011;44880;52.814;18.270;2023-05-02T00:25:57;13.50;;;5.10;;
59093;SDS011;44880;52.814;18.270;2023-05-02T00:28:29;11.80;;;5.00;;
59093;SDS011;44880;52.814;18.270;2023-05-02T00:31:00;9.70;;;4.80;;
59093;SDS011;44880;52.814;18.270;2023-05-02T00:36:02;11.10;;;4.50;;
59093;SDS011;44880;52.814;18.270;2023-05-02T00:38:34;10.50;;;4.80;;
59093;SDS011;44880;52.814;18.270;2023-05-02T00:41:06;10.70;;;5.00;;
59093;SDS011;44880;52.814;18.270;2023-05-02T00:43:38;11.30;;;5.10;;
59093;SDS011;44880;52.814;18.270;2023-05-02T00:46:09;13.50;;;5.00;;
59093;SDS011;44880;52.814;18.270;2023-05-02T00:48:42;11.30;;;4.70;;
59093;SDS011;44880;52.814;18.270;2023-05-02T00:51:14;11.00;;;4.50;;
59093;SDS011;44880;52.814;18.270;2023-05-02T00:53:46;10.80;;;4.60;;
59093;SDS011;44880;52.814;18.270;2023-05-02T00:56:18;12.90;;;4.80;;
59093;SDS011;44880;52.814;18.270;2023-05-02T00:58:50;11.60;;;5.00;;
59093;SDS011;44880;52.814;18.270;2023-05-02T01:01:25;13.50;;;5.10;;
59093;SDS011;44880;52.814;18.270;2023-05-02T01:04:07;14.20;;;5.00;;
59093;SDS011;44880;52.814;18.270;2023-05-02T01:06:52;12.20;;;4.90;;
59093;SDS011;44880;52.814;18.270;2023-05-02T01:09:36;12.20;;;4.80;;
59093;SDS011;44880;52.814;18.270;2023-05-02T01:12:13;11.10;;;5.00;;
59093;SDS011;44880;52.814;18.270;2023-05-02T01:14:49;12.00;;;5.30;;
59093;SDS011;44880;52.814;18.270;2023-05-02T01:17:23;10.00;;;4.50;;
59093;SDS011;44880;52.814;18.270;2023-05-02T01:19:57;9.80;;;4.50;;
59093;SDS011;44880;52.814;18.270;2023-05-02T01:22:29;11.90;;;5.00;;
59093;SDS011;44880;52.814;18.270;2023-05-02T01:25:04;12.20;;;5.30;;
59093;SDS011;44880;52.814;18.270;2023-05-02T01:27:46;13.00;;;5.60;;
59093;SDS011;44880;52.814;18.270;2023-05-02T01:30:24;12.60;;;5.10;;
59093;SDS011;44880;52.814;18.270;2023-05-02T01:32:58;14.50;;;5.50;;
59093;SDS011;44880;52.814;18.270;2023-05-02T01:35:31;14.60;;;5.40;;
59093;SDS011;44880;52.814;18.270;2023-05-02T01:38:03;14.10;;;5.40;;
59093;SDS011;44880;52.814;18.270;2023-05-02T01:40:35;9.80;;;5.00;;
59093;SDS011;44880;52.814;18.270;2023-05-02T01:43:08;12.70;;;5.30;;
59093;SDS011;44880;52.814;18.270;2023-05-02T01:45:40;12.80;;;5.70;;
59093;SDS011;44880;52.814;18.270;2023-05-02T01:48:15;13.20;;;5.60;;
59093;SDS011;44880;52.814;18.270;2023-05-02T01:50:47;12.70;;;5.80;;
59093;SDS011;44880;52.814;18.270;2023-05-02T01:53:21;12.70;;;5.90;;
59093;SDS011;44880;52.814;18.270;2023-05-02T01:55:55;12.10;;;5.50;;
59093;SDS011;44880;52.814;18.270;2023-05-02T01:58:28;13.50;;;6.10;;
59093;SDS011;44880;52.814;18.270;2023-05-02T02:01:01;13.90;;;5.70;;
59093;SDS011;44880;52.814;18.270;2023-05-02T02:03:33;12.20;;;5.70;;
59093;SDS011;44880;52.814;18.270;2023-05-02T02:06:05;13.00;;;5.50;;
59093;SDS011;44880;52.814;18.270;2023-05-02T02:08:37;12.90;;;5.20;;
59093;SDS011;44880;52.814;18.270;2023-05-02T02:11:10;12.70;;;5.70;;
59093;SDS011;44880;52.814;18.270;2023-05-02T02:13:48;11.40;;;5.80;;
59093;SDS011;44880;52.814;18.270;2023-05-02T02:16:23;12.50;;;5.50;;
59093;SDS011;44880;52.814;18.270;2023-05-02T02:18:58;11.80;;;5.40;;
59093;SDS011;44880;52.814;18.270;2023-05-02T02:21:35;11.00;;;5.40;;
59093;SDS011;44880;52.814;18.270;2023-05-02T02:24:08;12.60;;;5.90;;
59093;SDS011;44880;52.814;18.270;2023-05-02T02:26:40;11.90;;;5.30;;
59093;SDS011;44880;52.814;18.270;2023-05-02T02:29:12;14.30;;;5.90;;
59093;SDS011;44880;52.814;18.270;2023-05-02T02:31:44;11.60;;;5.60;;
59093;SDS011;44880;52.814;18.270;2023-05-02T02:34:16;13.30;;;6.30;;
59093;SDS011;44880;52.814;18.270;2023-05-02T02:36:49;13.00;;;5.90;;
59093;SDS011;44880;52.814;18.270;2023-05-02T02:39:27;14.00;;;5.50;;
59093;SDS011;44880;52.814;18.270;2023-05-02T02:42:09;13.40;;;5.80;;
59093;SDS011;44880;52.814;18.270;2023-05-02T02:44:49;20.20;;;6.50;;
59093;SDS011;44880;52.814;18.270;2023-05-02T02:47:26;14.00;;;6.00;;
59093;SDS011;44880;52.814;18.270;2023-05-02T02:50:04;12.70;;;6.10;;
59093;SDS011;44880;52.814;18.270;2023-05-02T02:52:49;13.20;;;5.70;;
59093;SDS011;44880;52.814;18.270;2023-05-02T02:55:37;11.80;;;5.90;;
59093;SDS011;44880;52.814;18.270;2023-05-02T02:58:14;13.90;;;6.00;;
59093;SDS011;44880;52.814;18.270;2023-05-02T03:00:51;13.50;;;6.40;;
59093;SDS011;44880;52.814;18.270;2023-05-02T03:03:23;12.90;;;6.20;;
59093;SDS011;44880;52.814;18.270;2023-05-02T03:05:56;12.80;;;6.10;;
59093;SDS011;44880;52.814;18.270;2023-05-02T03:08:30;12.60;;;6.10;;
59093;SDS011;44880;52.814;18.270;2023-05-02T03:11:10;12.90;;;5.90;;
59093;SDS011;44880;52.814;18.270;2023-05-02T03:13:41;13.00;;;6.40;;
59093;SDS011;44880;52.814;18.270;2023-05-02T03:19:13;12.20;;;5.90;;
59093;SDS011;44880;52.814;18.270;2023-05-02T03:21:45;13.10;;;6.40;;
59093;SDS011;44880;52.814;18.270;2023-05-02T03:24:19;14.10;;;6.00;;
59093;SDS011;44880;52.814;18.270;2023-05-02T03:26:50;14.30;;;7.30;;
59093;SDS011;44880;52.814;18.270;2023-05-02T03:29:26;14.40;;;6.20;;
59093;SDS011;44880;52.814;18.270;2023-05-02T03:31:58;13.20;;;6.10;;
59093;SDS011;44880;52.814;18.270;2023-05-02T03:34:30;13.20;;;6.50;;
59093;SDS011;44880;52.814;18.270;2023-05-02T03:39:32;12.90;;;5.80;;
59093;SDS011;44880;52.814;18.270;2023-05-02T03:42:04;14.00;;;7.20;;
59093;SDS011;44880;52.814;18.270;2023-05-02T03:44:35;13.90;;;7.60;;
59093;SDS011;44880;52.814;18.270;2023-05-02T03:47:07;15.10;;;7.50;;
59093;SDS011;44880;52.814;18.270;2023-05-02T03:49:41;13.60;;;7.30;;
59093;SDS011;44880;52.814;18.270;2023-05-02T03:52:13;15.40;;;8.20;;
59093;SDS011;44880;52.814;18.270;2023-05-02T03:57:15;15.90;;;7.40;;
59093;SDS011;44880;52.814;18.270;2023-05-02T03:59:47;14.80;;;7.50;;
59093;SDS011;44880;52.814;18.270;2023-05-02T04:02:23;13.40;;;7.40;;
59093;SDS011;44880;52.814;18.270;2023-05-02T04:07:26;15.00;;;8.40;;
59093;SDS011;44880;52.814;18.270;2023-05-02T04:10:06;14.00;;;7.10;;
59093;SDS011;44880;52.814;18.270;2023-05-02T04:12:46;14.70;;;7.50;;
59093;SDS011;44880;52.814;18.270;2023-05-02T04:15:19;14.30;;;7.30;;
59093;SDS011;44880;52.814;18.270;2023-05-02T04:17:52;14.20;;;7.60;;
59093;SDS011;44880;52.814;18.270;2023-05-02T04:20:24;16.70;;;7.90;;
59093;SDS011;44880;52.814;18.270;2023-05-02T04:22:57;14.80;;;7.50;;
59093;SDS011;44880;52.814;18.270;2023-05-02T04:28:02;15.20;;;7.00;;
59093;SDS011;44880;52.814;18.270;2023-05-02T04:33:09;16.70;;;8.40;;
59093;SDS011;44880;52.814;18.270;2023-05-02T04:35:41;17.70;;;9.50;;
59093;SDS011;44880;52.814;18.270;2023-05-02T04:38:15;15.20;;;7.80;;
59093;SDS011;44880;52.814;18.270;2023-05-02T04:40:47;14.00;;;7.80;;
59093;SDS011;44880;52.814;18.270;2023-05-02T04:43:24;12.40;;;7.30;;
59093;SDS011;44880;52.814;18.270;2023-05-02T04:45:59;14.30;;;8.00;;
59093;SDS011;44880;52.814;18.270;2023-05-02T04:48:38;15.50;;;7.40;;
59093;SDS011;44880;52.814;18.270;2023-05-02T04:51:10;15.10;;;7.90;;
59093;SDS011;44880;52.814;18.270;2023-05-02T04:54:19;15.70;;;7.80;;
59093;SDS011;44880;52.814;18.270;2023-05-02T04:59:45;13.40;;;7.50;;
59093;SDS011;44880;52.814;18.270;2023-05-02T05:02:17;16.70;;;7.70;;
59093;SDS011;44880;52.814;18.270;2023-05-02T05:07:33;13.20;;;7.20;;
59093;SDS011;44880;52.814;18.270;2023-05-02T05:10:05;15.10;;;8.00;;
59093;SDS011;44880;52.814;18.270;2023-05-02T05:15:42;14.70;;;8.20;;
59093;SDS011;44880;52.814;18.270;2023-05-02T05:21:12;15.30;;;8.40;;
59093;SDS011;44880;52.814;18.270;2023-05-02T05:23:44;13.80;;;8.70;;
59093;SDS011;44880;52.814;18.270;2023-05-02T05:26:45;14.40;;;9.10;;
59093;SDS011;44880;52.814;18.270;2023-05-02T05:29:17;16.30;;;7.90;;
59093;SDS011;44880;52.814;18.270;2023-05-02T05:34:44;17.10;;;9.00;;
59093;SDS011;44880;52.814;18.270;2023-05-02T05:37:16;15.80;;;9.00;;
59093;SDS011;44880;52.814;18.270;2023-05-02T05:42:49;17.20;;;9.60;;
59093;SDS011;44880;52.814;18.270;2023-05-02T05:48:22;16.80;;;9.60;;
59093;SDS011;44880;52.814;18.270;2023-05-02T05:53:45;17.40;;;9.20;;
59093;SDS011;44880;52.814;18.270;2023-05-02T05:56:17;17.60;;;9.50;;
59093;SDS011;44880;52.814;18.270;2023-05-02T05:59:07;19.80;;;12.40;;
59093;SDS011;44880;52.814;18.270;2023-05-02T06:01:39;17.20;;;10.00;;
59093;SDS011;44880;52.814;18.270;2023-05-02T06:04:11;18.50;;;10.10;;
59093;SDS011;44880;52.814;18.270;2023-05-02T06:09:41;21.00;;;12.40;;
59093;SDS011;44880;52.814;18.270;2023-05-02T06:17:41;20.50;;;13.00;;
59093;SDS011;44880;52.814;18.270;2023-05-02T06:23:09;16.90;;;10.80;;
59093;SDS011;44880;52.814;18.270;2023-05-02T06:25:41;16.80;;;10.10;;
59093;SDS011;44880;52.814;18.270;2023-05-02T06:31:03;15.60;;;9.60;;
59093;SDS011;44880;52.814;18.270;2023-05-02T06:33:35;17.80;;;10.00;;
59093;SDS011;44880;52.814;18.270;2023-05-02T06:39:03;19.90;;;10.70;;
59093;SDS011;44880;52.814;18.270;2023-05-02T06:41:34;15.70;;;10.70;;
59093;SDS011;44880;52.814;18.270;2023-05-02T06:44:23;16.10;;;10.00;;
59093;SDS011;44880;52.814;18.270;2023-05-02T06:46:54;17.70;;;11.80;;
59093;SDS011;44880;52.814;18.270;2023-05-02T06:49:26;16.90;;;10.40;;
59093;SDS011;44880;52.814;18.270;2023-05-02T06:52:18;17.10;;;11.30;;
59093;SDS011;44880;52.814;18.270;2023-05-02T06:54:50;17.70;;;12.10;;
59093;SDS011;44880;52.814;18.270;2023-05-02T07:00:14;18.30;;;12.20;;
59093;SDS011;44880;52.814;18.270;2023-05-02T07:02:50;22.80;;;13.00;;
59093;SDS011;44880;52.814;18.270;2023-05-02T07:08:10;15.70;;;10.00;;
59093;SDS011;44880;52.814;18.270;2023-05-02T07:10:45;15.40;;;10.30;;
59093;SDS011;44880;52.814;18.270;2023-05-02T07:16:13;19.40;;;11.20;;
59093;SDS011;44880;52.814;18.270;2023-05-02T07:18:45;19.10;;;10.80;;
59093;SDS011;44880;52.814;18.270;2023-05-02T07:21:37;18.50;;;9.80;;
59093;SDS011;44880;52.814;18.270;2023-05-02T07:24:12;15.90;;;9.40;;
59093;SDS011;44880;52.814;18.270;2023-05-02T07:26:58;17.60;;;10.30;;
59093;SDS011;44880;52.814;18.270;2023-05-02T07:29:30;17.10;;;10.10;;
59093;SDS011;44880;52.814;18.270;2023-05-02T07:32:02;14.80;;;9.40;;
59093;SDS011;44880;52.814;18.270;2023-05-02T07:37:33;15.90;;;9.50;;
59093;SDS011;44880;52.814;18.270;2023-05-02T07:40:09;16.60;;;10.20;;
59093;SDS011;44880;52.814;18.270;2023-05-02T07:43:01;15.60;;;9.70;;
59093;SDS011;44880;52.814;18.270;2023-05-02T07:45:33;15.90;;;10.10;;
59093;SDS011;44880;52.814;18.270;2023-05-02T07:48:22;18.10;;;10.00;;
59093;SDS011;44880;52.814;18.270;2023-05-02T07:50:54;15.60;;;8.90;;
59093;SDS011;44880;52.814;18.270;2023-05-02T07:53:27;16.20;;;9.30;;
59093;SDS011;44880;52.814;18.270;2023-05-02T07:56:38;16.70;;;9.80;;
59093;SDS011;44880;52.814;18.270;2023-05-02T08:02:07;15.80;;;9.00;;
59093;SDS011;44880;52.814;18.270;2023-05-02T08:04:45;14.50;;;8.70;;
59093;SDS011;44880;52.814;18.270;2023-05-02T08:07:46;15.40;;;9.10;;
59093;SDS011;44880;52.814;18.270;2023-05-02T08:10:19;13.50;;;8.90;;
59093;SDS011;44880;52.814;18.270;2023-05-02T08:13:16;12.80;;;7.70;;
59093;SDS011;44880;52.814;18.270;2023-05-02T08:15:49;14.00;;;8.30;;
59093;SDS011;44880;52.814;18.270;2023-05-02T08:21:20;13.60;;;7.70;;
59093;SDS011;44880;52.814;18.270;2023-05-02T08:23:52;13.20;;;7.70;;
59093;SDS011;44880;52.814;18.270;2023-05-02T08:26:56;13.20;;;8.00;;
59093;SDS011;44880;52.814;18.270;2023-05-02T08:29:28;12.80;;;7.10;;
59093;SDS011;44880;52.814;18.270;2023-05-02T08:32:19;10.50;;;5.80;;
59093;SDS011;44880;52.814;18.270;2023-05-02T08:34:51;10.10;;;5.70;;
59093;SDS011;44880;52.814;18.270;2023-05-02T08:37:25;14.60;;;6.70;;
59093;SDS011;44880;52.814;18.270;2023-05-02T08:40:36;7.70;;;3.50;;
59093;SDS011;44880;52.814;18.270;2023-05-02T08:46:05;11.10;;;5.90;;
59093;SDS011;44880;52.814;18.270;2023-05-02T08:48:39;8.90;;;4.50;;
59093;SDS011;44880;52.814;18.270;2023-05-02T08:51:38;8.20;;;4.20;;
59093;SDS011;44880;52.814;18.270;2023-05-02T08:54:11;12.00;;;5.60;;
59093;SDS011;44880;52.814;18.270;2023-05-02T08:57:05;10.00;;;5.30;;
59093;SDS011;44880;52.814;18.270;2023-05-02T08:59:37;10.70;;;5.50;;
59093;SDS011;44880;52.814;18.270;2023-05-02T09:05:18;8.80;;;4.00;;
59093;SDS011;44880;52.814;18.270;2023-05-02T09:07:50;8.20;;;4.00;;
59093;SDS011;44880;52.814;18.270;2023-05-02T09:10:50;8.50;;;3.50;;
59093;SDS011;44880;52.814;18.270;2023-05-02T09:16:31;8.50;;;3.90;;
59093;SDS011;44880;52.814;18.270;2023-05-02T09:22:07;8.60;;;3.90;;
59093;SDS011;44880;52.814;18.270;2023-05-02T09:24:39;9.10;;;4.10;;
59093;SDS011;44880;52.814;18.270;2023-05-02T09:27:33;9.50;;;3.80;;
59093;SDS011;44880;52.814;18.270;2023-05-02T09:30:21;8.60;;;3.70;;
59093;SDS011;44880;52.814;18.270;2023-05-02T09:33:26;8.10;;;3.50;;
59093;SDS011;44880;52.814;18.270;2023-05-02T09:39:07;7.60;;;2.70;;
59093;SDS011;44880;52.814;18.270;2023-05-02T09:44:38;6.90;;;2.80;;
59093;SDS011;44880;52.814;18.270;2023-05-02T09:47:11;8.70;;;3.20;;
59093;SDS011;44880;52.814;18.270;2023-05-02T09:50:34;7.30;;;2.50;;
59093;SDS011;44880;52.814;18.270;2023-05-02T09:53:37;7.40;;;2.60;;
59093;SDS011;44880;52.814;18.270;2023-05-02T09:56:14;7.70;;;2.60;;
59093;SDS011;44880;52.814;18.270;2023-05-02T09:59:25;7.00;;;2.80;;
59093;SDS011;44880;52.814;18.270;2023-05-02T10:04:56;8.60;;;3.00;;
59093;SDS011;44880;52.814;18.270;2023-05-02T10:07:29;7.30;;;2.70;;
59093;SDS011;44880;52.814;18.270;2023-05-02T10:10:18;7.40;;;3.00;;
59093;SDS011;44880;52.814;18.270;2023-05-02T10:12:50;7.50;;;3.10;;
59093;SDS011;44880;52.814;18.270;2023-05-02T10:15:23;9.30;;;3.10;;
59093;SDS011;44880;52.814;18.270;2023-05-02T10:18:25;8.30;;;3.10;;
59093;SDS011;44880;52.814;18.270;2023-05-02T10:20:59;8.80;;;3.10;;
59093;SDS011;44880;52.814;18.270;2023-05-02T10:24:02;8.50;;;3.20;;
59093;SDS011;44880;52.814;18.270;2023-05-02T10:26:34;7.50;;;2.90;;
59093;SDS011;44880;52.814;18.270;2023-05-02T10:34:29;8.80;;;4.10;;
59093;SDS011;44880;52.814;18.270;2023-05-02T10:40:01;9.20;;;3.60;;
59093;SDS011;44880;52.814;18.270;2023-05-02T10:45:33;9.00;;;3.30;;
59093;SDS011;44880;52.814;18.270;2023-05-02T10:51:07;7.50;;;2.90;;
59093;SDS011;44880;52.814;18.270;2023-05-02T10:53:41;7.60;;;3.10;;
59093;SDS011;44880;52.814;18.270;2023-05-02T10:57:05;7.50;;;2.60;;
59093;SDS011;44880;52.814;18.270;2023-05-02T11:06:06;9.10;;;3.70;;
59093;SDS011;44880;52.814;18.270;2023-05-02T11:16:02;7.80;;;3.50;;
59093;SDS011;44880;52.814;18.270;2023-05-02T11:21:33;8.60;;;4.10;;
59093;SDS011;44880;52.814;18.270;2023-05-02T11:30:44;8.50;;;4.00;;
59093;SDS011;44880;52.814;18.270;2023-05-02T11:36:13;9.30;;;4.00;;
59093;SDS011;44880;52.814;18.270;2023-05-02T11:38:46;9.00;;;4.00;;
59093;SDS011;44880;52.814;18.270;2023-05-02T11:41:45;10.50;;;4.40;;
59093;SDS011;44880;52.814;18.270;2023-05-02T11:44:18;10.40;;;4.50;;
59093;SDS011;44880;52.814;18.270;2023-05-02T11:49:42;8.90;;;4.30;;
59093;SDS011;44880;52.814;18.270;2023-05-02T11:52:14;8.40;;;4.50;;
59093;SDS011;44880;52.814;18.270;2023-05-02T11:55:06;9.50;;;4.50;;
59093;SDS011;44880;52.814;18.270;2023-05-02T11:57:39;14.10;;;5.50;;
59093;SDS011;44880;52.814;18.270;2023-05-02T12:03:26;8.90;;;4.90;;
59093;SDS011;44880;52.814;18.270;2023-05-02T12:06:19;9.70;;;4.70;;
59093;SDS011;44880;52.814;18.270;2023-05-02T12:08:51;10.60;;;5.10;;
59093;SDS011;44880;52.814;18.270;2023-05-02T12:14:29;8.40;;;4.00;;
59093;SDS011;44880;52.814;18.270;2023-05-02T12:17:03;10.00;;;4.80;;
59093;SDS011;44880;52.814;18.270;2023-05-02T12:19:59;9.10;;;4.60;;
59093;SDS011;44880;52.814;18.270;2023-05-02T12:22:32;11.20;;;4.80;;
59093;SDS011;44880;52.814;18.270;2023-05-02T12:28:00;10.50;;;4.60;;
59093;SDS011;44880;52.814;18.270;2023-05-02T12:30:32;9.10;;;4.00;;
59093;SDS011;44880;52.814;18.270;2023-05-02T12:33:43;8.50;;;4.20;;
59093;SDS011;44880;52.814;18.270;2023-05-02T12:39:16;8.50;;;4.10;;
59093;SDS011;44880;52.814;18.270;2023-05-02T12:41:47;8.30;;;4.00;;
59093;SDS011;44880;52.814;18.270;2023-05-02T12:44:39;8.60;;;4.50;;
59093;SDS011;44880;52.814;18.270;2023-05-02T12:47:13;9.10;;;4.20;;
59093;SDS011;44880;52.814;18.270;2023-05-02T12:52:46;8.80;;;3.80;;
59093;SDS011;44880;52.814;18.270;2023-05-02T12:55:22;9.40;;;3.80;;
59093;SDS011;44880;52.814;18.270;2023-05-02T12:58:43;9.40;;;3.80;;
59093;SDS011;44880;52.814;18.270;2023-05-02T13:02:02;8.50;;;3.60;;
59093;SDS011;44880;52.814;18.270;2023-05-02T13:07:26;9.40;;;3.80;;
59093;SDS011;44880;52.814;18.270;2023-05-02T13:15:22;8.70;;;3.20;;
59093;SDS011;44880;52.814;18.270;2023-05-02T13:21:07;7.70;;;3.10;;
59093;SDS011;44880;52.814;18.270;2023-05-02T13:26:33;7.90;;;3.50;;
59093;SDS011;44880;52.814;18.270;2023-05-02T13:29:05;8.40;;;3.20;;
59093;SDS011;44880;52.814;18.270;2023-05-02T13:32:22;7.50;;;3.00;;
59093;SDS011;44880;52.814;18.270;2023-05-02T13:37:52;8.30;;;2.90;;
59093;SDS011;44880;52.814;18.270;2023-05-02T13:43:13;26.60;;;12.30;;
59093;SDS011;44880;52.814;18.270;2023-05-02T13:45:45;9.60;;;4.20;;
59093;SDS011;44880;52.814;18.270;2023-05-02T13:48:17;12.80;;;8.40;;
59093;SDS011;44880;52.814;18.270;2023-05-02T13:51:17;10.00;;;4.70;;
59093;SDS011;44880;52.814;18.270;2023-05-02T13:59:14;9.70;;;4.80;;
59093;SDS011;44880;52.814;18.270;2023-05-02T14:07:06;10.00;;;5.30;;
59093;SDS011;44880;52.814;18.270;2023-05-02T14:09:38;11.70;;;6.40;;
59093;SDS011;44880;52.814;18.270;2023-05-02T14:14:59;10.50;;;6.00;;
59093;SDS011;44880;52.814;18.270;2023-05-02T14:22:52;10.70;;;5.60;;
59093;SDS011;44880;52.814;18.270;2023-05-02T14:25:24;11.80;;;6.50;;
59093;SDS011;44880;52.814;18.270;2023-05-02T14:30:50;11.50;;;6.10;;
59093;SDS011;44880;52.814;18.270;2023-05-02T14:36:30;10.40;;;5.50;;
59093;SDS011;44880;52.814;18.270;2023-05-02T14:42:15;10.10;;;5.80;;
59093;SDS011;44880;52.814;18.270;2023-05-02T14:47:42;13.30;;;6.30;;
59093;SDS011;44880;52.814;18.270;2023-05-02T14:50:14;11.20;;;6.30;;
59093;SDS011;44880;52.814;18.270;2023-05-02T14:53:15;12.10;;;6.60;;
59093;SDS011;44880;52.814;18.270;2023-05-02T14:55:49;10.40;;;6.10;;
59093;SDS011;44880;52.814;18.270;2023-05-02T15:01:17;12.80;;;6.90;;
59093;SDS011;44880;52.814;18.270;2023-05-02T15:06:49;13.70;;;8.20;;
59093;SDS011;44880;52.814;18.270;2023-05-02T15:09:21;13.20;;;6.70;;
59093;SDS011;44880;52.814;18.270;2023-05-02T15:12:11;15.50;;;8.20;;
59093;SDS011;44880;52.814;18.270;2023-05-02T15:14:43;14.00;;;7.70;;
59093;SDS011;44880;52.814;18.270;2023-05-02T15:22:42;10.40;;;6.00;;
59093;SDS011;44880;52.814;18.270;2023-05-02T15:28:20;10.20;;;4.80;;
59093;SDS011;44880;52.814;18.270;2023-05-02T15:33:54;9.30;;;4.30;;
59093;SDS011;44880;52.814;18.270;2023-05-02T15:36:27;12.40;;;5.50;;
59093;SDS011;44880;52.814;18.270;2023-05-02T15:39:36;8.70;;;4.00;;
59093;SDS011;44880;52.814;18.270;2023-05-02T15:45:08;11.90;;;6.00;;
59093;SDS011;44880;52.814;18.270;2023-05-02T15:47:42;10.00;;;4.20;;
59093;SDS011;44880;52.814;18.270;2023-05-02T15:50:42;9.90;;;3.20;;
59093;SDS011;44880;52.814;18.270;2023-05-02T15:53:14;8.20;;;3.30;;
59093;SDS011;44880;52.814;18.270;2023-05-02T15:58:39;8.60;;;3.70;;
59093;SDS011;44880;52.814;18.270;2023-05-02T16:01:11;9.70;;;3.80;;
59093;SDS011;44880;52.814;18.270;2023-05-02T16:04:02;9.90;;;4.30;;
59093;SDS011;44880;52.814;18.270;2023-05-02T16:06:36;8.80;;;3.60;;
59093;SDS011;44880;52.814;18.270;2023-05-02T16:12:11;8.90;;;3.40;;
59093;SDS011;44880;52.814;18.270;2023-05-02T16:14:42;7.70;;;3.10;;
59093;SDS011;44880;52.814;18.270;2023-05-02T16:17:53;8.70;;;3.50;;
59093;SDS011;44880;52.814;18.270;2023-05-02T16:23:25;11.00;;;4.70;;
59093;SDS011;44880;52.814;18.270;2023-05-02T16:25:57;9.40;;;3.70;;
59093;SDS011;44880;52.814;18.270;2023-05-02T16:28:59;8.70;;;3.90;;
59093;SDS011;44880;52.814;18.270;2023-05-02T16:31:31;12.70;;;5.30;;
59093;SDS011;44880;52.814;18.270;2023-05-02T16:36:56;12.70;;;6.00;;
59093;SDS011;44880;52.814;18.270;2023-05-02T16:44:54;11.20;;;5.30;;
59093;SDS011;44880;52.814;18.270;2023-05-02T16:50:26;19.80;;;9.40;;
59093;SDS011;44880;52.814;18.270;2023-05-02T16:52:58;17.40;;;8.70;;
59093;SDS011;44880;52.814;18.270;2023-05-02T16:55:49;13.70;;;6.80;;
59093;SDS011;44880;52.814;18.270;2023-05-02T16:58:21;8.40;;;3.50;;
59093;SDS011;44880;52.814;18.270;2023-05-02T17:00:55;8.90;;;3.40;;
59093;SDS011;44880;52.814;18.270;2023-05-02T17:03:43;9.10;;;3.40;;
59093;SDS011;44880;52.814;18.270;2023-05-02T17:06:15;8.00;;;2.90;;
59093;SDS011;44880;52.814;18.270;2023-05-02T17:11:37;11.10;;;4.30;;
59093;SDS011;44880;52.814;18.270;2023-05-02T17:14:09;8.10;;;3.00;;
59093;SDS011;44880;52.814;18.270;2023-05-02T17:16:41;8.90;;;3.30;;
59093;SDS011;44880;52.814;18.270;2023-05-02T17:20:00;9.70;;;3.90;;
59093;SDS011;44880;52.814;18.270;2023-05-02T17:28:50;8.30;;;4.00;;
59093;SDS011;44880;52.814;18.270;2023-05-02T17:34:27;10.90;;;4.40;;
59093;SDS011;44880;52.814;18.270;2023-05-02T17:37:04;9.70;;;3.90;;
59093;SDS011;44880;52.814;18.270;2023-05-02T17:40:17;13.60;;;4.70;;
59093;SDS011;44880;52.814;18.270;2023-05-02T17:43:09;13.10;;;4.60;;
59093;SDS011;44880;52.814;18.270;2023-05-02T17:45:41;8.50;;;2.80;;
59093;SDS011;44880;52.814;18.270;2023-05-02T17:48:14;9.00;;;2.90;;
59093;SDS011;44880;52.814;18.270;2023-05-02T17:51:25;11.20;;;3.60;;
59093;SDS011;44880;52.814;18.270;2023-05-02T17:54:24;10.80;;;3.90;;
59093;SDS011;44880;52.814;18.270;2023-05-02T17:56:56;9.40;;;3.90;;
59093;SDS011;44880;52.814;18.270;2023-05-02T17:59:29;9.70;;;3.30;;
59093;SDS011;44880;52.814;18.270;2023-05-02T18:02:38;11.90;;;3.70;;
59093;SDS011;44880;52.814;18.270;2023-05-02T18:05:10;9.80;;;3.70;;
59093;SDS011;44880;52.814;18.270;2023-05-02T18:08:12;12.20;;;4.30;;
59093;SDS011;44880;52.814;18.270;2023-05-02T18:10:44;9.90;;;3.80;;
59093;SDS011;44880;52.814;18.270;2023-05-02T18:13:55;10.10;;;4.30;;
59093;SDS011;44880;52.814;18.270;2023-05-02T18:16:31;12.80;;;4.40;;
59093;SDS011;44880;52.814;18.270;2023-05-02T18:19:03;11.80;;;4.60;;
59093;SDS011;44880;52.814;18.270;2023-05-02T18:21:35;9.70;;;4.00;;
59093;SDS011;44880;52.814;18.270;2023-05-02T18:26:37;25.20;;;9.70;;
59093;SDS011;44880;52.814;18.270;2023-05-02T18:29:09;25.10;;;9.10;;
59093;SDS011;44880;52.814;18.270;2023-05-02T18:31:41;11.20;;;4.80;;
59093;SDS011;44880;52.814;18.270;2023-05-02T18:34:24;12.40;;;4.30;;
59093;SDS011;44880;52.814;18.270;2023-05-02T18:37:02;12.50;;;5.50;;
59093;SDS011;44880;52.814;18.270;2023-05-02T18:39:36;13.00;;;5.50;;
59093;SDS011;44880;52.814;18.270;2023-05-02T18:42:08;12.20;;;4.60;;
59093;SDS011;44880;52.814;18.270;2023-05-02T18:44:42;12.10;;;4.60;;
59093;SDS011;44880;52.814;18.270;2023-05-02T18:47:15;11.30;;;4.10;;
59093;SDS011;44880;52.814;18.270;2023-05-02T18:49:50;9.60;;;4.20;;
59093;SDS011;44880;52.814;18.270;2023-05-02T18:52:25;10.50;;;3.50;;
59093;SDS011;44880;52.814;18.270;2023-05-02T18:55:00;9.30;;;3.40;;
59093;SDS011;44880;52.814;18.270;2023-05-02T18:57:37;10.60;;;4.20;;
59093;SDS011;44880;52.814;18.270;2023-05-02T19:00:18;12.00;;;4.40;;
59093;SDS011;44880;52.814;18.270;2023-05-02T19:02:54;12.80;;;4.00;;
59093;SDS011;44880;52.814;18.270;2023-05-02T19:07:56;10.00;;;3.60;;
59093;SDS011;44880;52.814;18.270;2023-05-02T19:10:29;8.90;;;3.10;;
59093;SDS011;44880;52.814;18.270;2023-05-02T19:13:02;8.10;;;2.60;;
59093;SDS011;44880;52.814;18.270;2023-05-02T19:18:05;12.10;;;3.80;;
59093;SDS011;44880;52.814;18.270;2023-05-02T19:20:44;11.90;;;3.70;;
59093;SDS011;44880;52.814;18.270;2023-05-02T19:23:19;13.50;;;4.40;;
59093;SDS011;44880;52.814;18.270;2023-05-02T19:25:55;13.80;;;6.00;;
59093;SDS011;44880;52.814;18.270;2023-05-02T19:28:28;12.40;;;5.40;;
59093;SDS011;44880;52.814;18.270;2023-05-02T19:31:05;14.00;;;5.30;;
59093;SDS011;44880;52.814;18.270;2023-05-02T19:33:43;14.40;;;6.60;;
59093;SDS011;44880;52.814;18.270;2023-05-02T19:36:23;17.00;;;6.40;;
59093;SDS011;44880;52.814;18.270;2023-05-02T19:38:57;14.60;;;5.90;;
59093;SDS011;44880;52.814;18.270;2023-05-02T19:41:31;12.80;;;4.30;;
59093;SDS011;44880;52.814;18.270;2023-05-02T19:44:03;15.70;;;6.30;;
59093;SDS011;44880;52.814;18.270;2023-05-02T19:46:39;12.10;;;4.80;;
59093;SDS011;44880;52.814;18.270;2023-05-02T19:49:12;15.70;;;6.70;;
59093;SDS011;44880;52.814;18.270;2023-05-02T19:51:45;16.30;;;4.80;;